createdAt,value
2018-10-03T00:00:01.728Z,13.99
2018-10-03T00:02:30.172Z,13.46
2018-10-03T00:04:58.617Z,13.81
2018-10-03T00:07:27.012Z,13.62
2018-10-03T00:09:55.523Z,14.13
2018-10-03T00:12:24.054Z,13.39
2018-10-03T00:14:52.401Z,13.68
2018-10-03T00:17:20.832Z,13.66
2018-10-03T00:19:49.267Z,12.97
2018-10-03T00:22:17.719Z,14.15
2018-10-03T00:24:46.124Z,13.65
2018-10-03T00:27:14.560Z,12.90
2018-10-03T00:29:43.003Z,14.13
2018-10-03T00:32:11.508Z,13.16
2018-10-03T00:34:40.055Z,13.84
2018-10-03T00:37:08.611Z,13.94
2018-10-03T00:39:37.233Z,13.50
2018-10-03T00:42:06.369Z,13.17
2018-10-03T00:44:36.832Z,13.39
2018-10-03T00:47:05.252Z,13.58
2018-10-03T00:49:34.243Z,13.02
2018-10-03T00:52:02.668Z,13.46
2018-10-03T00:54:31.105Z,13.61
2018-10-03T00:56:59.552Z,13.92
2018-10-03T00:59:28.047Z,13.69
2018-10-03T01:01:56.475Z,14.02
2018-10-03T01:04:24.859Z,13.71
2018-10-03T01:06:53.245Z,14.07
2018-10-03T01:09:21.749Z,13.26
2018-10-03T01:11:50.183Z,14.01
2018-10-03T01:14:18.630Z,13.56
2018-10-03T01:16:47.042Z,13.07
2018-10-03T01:19:15.545Z,13.04
2018-10-03T01:21:44.042Z,12.68
2018-10-03T01:24:12.437Z,13.51
2018-10-03T01:26:40.823Z,13.99
2018-10-03T01:29:09.192Z,13.31
2018-10-03T01:31:37.620Z,13.21
2018-10-03T01:34:05.992Z,13.28
2018-10-03T01:36:34.385Z,13.11
2018-10-03T01:39:02.768Z,13.56
2018-10-03T01:41:31.113Z,13.83
2018-10-03T01:43:59.545Z,13.57
2018-10-03T01:46:27.969Z,13.77
2018-10-03T01:48:56.359Z,13.76
2018-10-03T01:51:24.739Z,13.28
2018-10-03T01:53:53.093Z,12.94
2018-10-03T01:56:21.451Z,13.15
2018-10-03T01:58:49.811Z,12.59
2018-10-03T02:01:18.219Z,13.09
2018-10-03T02:03:46.582Z,13.89
2018-10-03T02:06:15.005Z,13.45
2018-10-03T02:08:43.431Z,13.70
2018-10-03T02:11:11.903Z,12.67
2018-10-03T02:13:40.299Z,12.52
2018-10-03T02:16:08.779Z,13.29
2018-10-03T02:18:37.213Z,13.92
2018-10-03T02:21:05.664Z,14.17
2018-10-03T02:23:34.091Z,13.45
2018-10-03T02:26:02.502Z,13.71
2018-10-03T02:28:31.980Z,13.23
2018-10-03T02:31:00.377Z,12.90
2018-10-03T02:33:28.828Z,13.41
2018-10-03T02:35:57.267Z,12.89
2018-10-03T02:38:25.680Z,13.12
2018-10-03T02:40:54.060Z,13.42
2018-10-03T02:43:22.497Z,13.07
2018-10-03T02:45:50.920Z,13.05
2018-10-03T02:48:19.328Z,13.03
2018-10-03T02:50:47.745Z,12.73
2018-10-03T02:53:16.175Z,13.63
2018-10-03T02:55:44.575Z,12.97
2018-10-03T02:58:12.985Z,13.45
2018-10-03T03:00:41.453Z,13.08
2018-10-03T03:03:09.962Z,13.35
2018-10-03T03:05:38.512Z,13.42
2018-10-03T03:08:06.940Z,13.27
2018-10-03T03:10:35.459Z,13.19
2018-10-03T03:13:03.907Z,12.42
2018-10-03T03:15:32.324Z,13.12
2018-10-03T03:18:00.774Z,12.56
2018-10-03T03:20:29.179Z,12.95
2018-10-03T03:22:57.603Z,12.81
2018-10-03T03:25:26.110Z,12.99
2018-10-03T03:27:55.493Z,13.60
2018-10-03T03:30:23.936Z,14.15
2018-10-03T03:32:52.353Z,12.61
2018-10-03T03:35:20.819Z,13.03
2018-10-03T03:37:49.232Z,13.73
2018-10-03T03:40:17.692Z,13.12
2018-10-03T03:42:46.104Z,13.27
2018-10-03T03:45:14.495Z,13.10
2018-10-03T03:47:42.914Z,13.84
2018-10-03T03:50:11.324Z,13.07
2018-10-03T03:52:39.739Z,13.14
2018-10-03T03:55:08.168Z,13.65
2018-10-03T03:57:36.660Z,12.73
2018-10-03T04:00:05.120Z,13.65
2018-10-03T04:02:33.554Z,13.04
2018-10-03T04:05:01.965Z,13.28
2018-10-03T04:07:30.353Z,13.17
2018-10-03T04:09:58.776Z,12.91
2018-10-03T04:12:27.247Z,13.21
2018-10-03T04:14:55.659Z,13.45
2018-10-03T04:17:24.145Z,13.36
2018-10-03T04:19:52.520Z,13.75
2018-10-03T04:22:20.935Z,13.72
2018-10-03T04:24:49.283Z,13.40
2018-10-03T04:27:17.647Z,13.60
2018-10-03T04:29:46.013Z,13.79
2018-10-03T04:32:14.373Z,13.21
2018-10-03T04:34:42.755Z,13.23
2018-10-03T04:37:11.111Z,12.83
2018-10-03T04:39:39.520Z,13.41
2018-10-03T04:42:07.948Z,13.35
2018-10-03T04:44:36.402Z,13.41
2018-10-03T04:47:04.767Z,14.12
2018-10-03T04:49:33.398Z,13.37
2018-10-03T04:52:01.861Z,13.35
2018-10-03T04:54:30.286Z,13.63
2018-10-03T04:56:58.724Z,13.67
2018-10-03T04:59:27.075Z,13.27
2018-10-03T05:01:55.484Z,13.43
2018-10-03T05:04:23.900Z,12.53
2018-10-03T05:06:52.383Z,13.33
2018-10-03T05:09:24.656Z,13.55
2018-10-03T05:11:53.035Z,13.12
2018-10-03T05:14:21.865Z,13.29
2018-10-03T05:16:50.264Z,13.51
2018-10-03T05:19:18.673Z,13.25
2018-10-03T05:21:47.273Z,13.38
2018-10-03T05:24:15.838Z,12.71
2018-10-03T05:26:44.361Z,13.34
2018-10-03T05:29:12.780Z,13.41
2018-10-03T05:31:41.225Z,14.02
2018-10-03T05:34:09.599Z,14.35
2018-10-03T05:36:38.005Z,12.65
2018-10-03T05:39:08.827Z,13.97
2018-10-03T05:41:37.392Z,13.84
2018-10-03T05:44:05.952Z,14.35
2018-10-03T05:46:34.429Z,13.29
2018-10-03T05:49:02.905Z,13.37
2018-10-03T05:51:32.375Z,13.60
2018-10-03T05:54:00.864Z,13.48
2018-10-03T05:56:29.342Z,13.30
2018-10-03T05:58:57.818Z,13.70
2018-10-03T06:01:26.275Z,13.84
2018-10-03T06:03:54.715Z,13.66
2018-10-03T06:06:23.177Z,13.42
2018-10-03T06:08:51.688Z,13.86
2018-10-03T06:11:20.214Z,13.91
2018-10-03T06:13:48.721Z,13.52
2018-10-03T06:16:17.163Z,13.35
2018-10-03T06:18:45.731Z,13.84
2018-10-03T06:21:14.041Z,13.99
2018-10-03T06:23:42.508Z,13.59
2018-10-03T06:26:11.939Z,13.63
2018-10-03T06:28:40.372Z,13.57
2018-10-03T06:31:09.643Z,12.75
2018-10-03T06:33:39.006Z,14.08
2018-10-03T06:36:09.105Z,12.95
2018-10-03T06:38:37.620Z,12.94
2018-10-03T06:41:06.133Z,13.77
2018-10-03T06:43:34.700Z,13.55
2018-10-03T06:46:03.238Z,13.86
2018-10-03T06:48:31.705Z,14.36
2018-10-03T06:51:00.242Z,14.16
2018-10-03T06:53:28.683Z,14.78
2018-10-03T06:55:57.179Z,14.24
2018-10-03T06:58:25.655Z,14.51
2018-10-03T07:00:54.092Z,14.48
2018-10-03T07:03:23.641Z,14.59
2018-10-03T07:05:52.137Z,14.08
2018-10-03T07:08:21.527Z,14.46
2018-10-03T07:10:50.044Z,13.97
2018-10-03T07:13:18.498Z,13.92
2018-10-03T07:15:47.899Z,13.80
2018-10-03T07:18:16.445Z,13.96
2018-10-03T07:20:45.793Z,13.45
2018-10-03T07:23:14.592Z,14.34
2018-10-03T07:25:43.032Z,14.08
2018-10-03T07:28:11.370Z,14.10
2018-10-03T07:30:39.876Z,14.00
2018-10-03T07:33:08.371Z,14.14
2018-10-03T07:35:36.753Z,14.36
2018-10-03T07:38:05.136Z,14.59
2018-10-03T07:40:33.555Z,14.21
2018-10-03T07:43:01.882Z,14.46
2018-10-03T07:45:30.280Z,14.13
2018-10-03T07:47:58.676Z,13.89
2018-10-03T07:50:27.187Z,13.77
2018-10-03T07:52:55.607Z,13.94
2018-10-03T07:55:25.059Z,14.37
2018-10-03T07:57:53.725Z,14.80
2018-10-03T08:00:28.326Z,14.40
2018-10-03T08:02:57.056Z,14.59
2018-10-03T08:05:25.799Z,14.71
2018-10-03T08:07:55.379Z,14.78
2018-10-03T08:10:23.883Z,14.64
2018-10-03T08:12:53.324Z,14.96
2018-10-03T08:15:21.653Z,14.96
2018-10-03T08:17:50.073Z,14.44
2018-10-03T08:20:18.500Z,13.98
2018-10-03T08:22:47.872Z,14.99
2018-10-03T08:25:16.304Z,15.45
2018-10-03T08:27:44.740Z,15.13
2018-10-03T08:30:13.151Z,13.17
2018-10-03T08:32:41.589Z,14.59
2018-10-03T08:35:09.988Z,14.21
2018-10-03T08:37:38.454Z,14.93
2018-10-03T08:40:07.055Z,14.64
2018-10-03T08:42:35.476Z,14.47
2018-10-03T08:45:06.147Z,14.77
2018-10-03T08:47:34.544Z,14.64
2018-10-03T08:50:02.998Z,13.84
2018-10-03T08:52:31.440Z,14.71
2018-10-03T08:55:00.142Z,14.82
2018-10-03T08:57:28.595Z,14.77
2018-10-03T08:59:56.997Z,15.14
2018-10-03T09:02:25.423Z,15.09
2018-10-03T09:04:53.981Z,14.04
2018-10-03T09:07:22.394Z,13.53
2018-10-03T09:09:51.105Z,13.40
2018-10-03T09:12:19.584Z,13.87
2018-10-03T09:14:48.128Z,13.79
2018-10-03T09:17:16.636Z,13.99
2018-10-03T09:19:45.123Z,14.45
2018-10-03T09:22:14.666Z,13.83
2018-10-03T09:24:43.183Z,14.54
2018-10-03T09:27:11.733Z,16.11
2018-10-03T09:29:40.273Z,15.93
2018-10-03T09:32:08.712Z,15.80
2018-10-03T09:34:37.217Z,15.83
2018-10-03T09:37:05.663Z,16.12
2018-10-03T09:39:34.209Z,16.69
2018-10-03T09:42:02.764Z,16.80
2018-10-03T09:44:32.232Z,17.25
2018-10-03T09:47:00.614Z,16.62
2018-10-03T09:49:29.011Z,16.63
2018-10-03T09:51:57.421Z,15.86
2018-10-03T09:54:25.855Z,15.81
2018-10-03T09:56:54.684Z,15.28
2018-10-03T09:59:23.131Z,15.45
2018-10-03T10:01:55.295Z,15.42
2018-10-03T10:04:23.830Z,15.58
2018-10-03T10:06:52.225Z,15.53
2018-10-03T10:09:20.804Z,15.80
2018-10-03T10:11:49.215Z,15.74
2018-10-03T10:14:17.620Z,16.15
2018-10-03T10:16:46.028Z,15.29
2018-10-03T10:19:14.540Z,14.90
2018-10-03T10:21:42.974Z,14.84
2018-10-03T10:24:11.480Z,14.76
2018-10-03T10:26:39.935Z,15.68
2018-10-03T10:29:08.388Z,15.28
2018-10-03T10:31:37.899Z,16.18
2018-10-03T10:34:06.292Z,16.59
2018-10-03T10:36:34.732Z,16.59
2018-10-03T10:39:03.252Z,16.53
2018-10-03T10:41:31.917Z,17.63
2018-10-03T10:44:00.238Z,16.45
2018-10-03T10:46:28.730Z,16.48
2018-10-03T10:48:57.238Z,16.81
2018-10-03T10:51:25.721Z,17.14
2018-10-03T10:53:54.271Z,17.76
2018-10-03T10:56:22.672Z,17.66
2018-10-03T10:58:51.072Z,17.17
2018-10-03T11:01:19.504Z,16.96
2018-10-03T11:03:47.908Z,16.35
2018-10-03T11:06:16.376Z,16.50
2018-10-03T11:08:44.776Z,16.18
2018-10-03T11:11:13.205Z,16.58
2018-10-03T11:13:41.760Z,17.30
2018-10-03T11:16:10.171Z,16.93
2018-10-03T11:18:38.563Z,16.31
2018-10-03T11:21:07.067Z,16.07
2018-10-03T11:23:35.575Z,16.16
2018-10-03T11:26:04.896Z,17.25
2018-10-03T11:28:33.376Z,18.06
2018-10-03T11:31:01.809Z,18.48
2018-10-03T11:33:32.275Z,16.53
2018-10-03T11:36:00.704Z,17.54
2018-10-03T11:38:29.191Z,19.30
2018-10-03T11:40:57.724Z,18.44
2018-10-03T11:43:26.201Z,19.33
2018-10-03T11:45:54.693Z,19.64
2018-10-03T11:48:24.127Z,20.22
2018-10-03T11:50:52.616Z,18.67
2018-10-03T11:53:21.133Z,18.84
2018-10-03T11:55:49.696Z,19.72
2018-10-03T11:58:18.276Z,18.96
2018-10-03T12:00:47.868Z,18.01
2018-10-03T12:03:16.578Z,17.94
2018-10-03T12:05:44.951Z,17.27
2018-10-03T12:08:13.394Z,17.37
2018-10-03T12:10:41.873Z,17.99
2018-10-03T12:13:10.376Z,18.10
2018-10-03T12:15:40.825Z,17.71
2018-10-03T12:18:09.321Z,18.06
2018-10-03T12:20:37.815Z,17.74
2018-10-03T12:23:06.282Z,17.90
2018-10-03T12:25:34.796Z,19.09
2018-10-03T12:28:03.336Z,18.10
2018-10-03T12:30:31.728Z,17.90
2018-10-03T12:33:00.170Z,17.63
2018-10-03T12:35:34.024Z,17.93
2018-10-03T12:38:02.854Z,17.66
2018-10-03T12:40:31.843Z,18.35
2018-10-03T12:43:00.353Z,18.14
2018-10-03T12:45:30.088Z,18.45
2018-10-03T12:47:58.779Z,17.62
2018-10-03T12:50:27.762Z,17.68
2018-10-03T12:52:56.123Z,16.50
2018-10-03T12:55:24.595Z,16.52
2018-10-03T12:57:52.972Z,16.71
2018-10-03T13:00:21.483Z,17.08
2018-10-03T13:02:49.855Z,16.73
2018-10-03T13:05:18.232Z,16.53
2018-10-03T13:07:46.619Z,16.80
2018-10-03T13:10:14.998Z,16.22
2018-10-03T13:12:43.363Z,16.48
2018-10-03T13:15:11.788Z,17.13
2018-10-03T13:17:40.278Z,17.69
2018-10-03T13:20:08.952Z,17.40
2018-10-03T13:22:37.418Z,18.01
2018-10-03T13:25:05.908Z,18.74
2018-10-03T13:27:34.325Z,18.80
2018-10-03T13:30:02.737Z,18.85
2018-10-03T13:32:31.252Z,17.68
2018-10-03T13:34:59.687Z,17.88
2018-10-03T13:37:29.129Z,16.74
2018-10-03T13:39:57.582Z,17.05
2018-10-03T13:42:26.054Z,16.40
2018-10-03T13:44:54.447Z,16.26
2018-10-03T13:47:22.895Z,17.20
2018-10-03T13:49:51.343Z,16.75
2018-10-03T13:52:19.876Z,15.75
2018-10-03T13:54:48.353Z,16.47
2018-10-03T13:57:17.852Z,16.20
2018-10-03T13:59:46.305Z,16.08
2018-10-03T14:02:14.877Z,16.16
2018-10-03T14:04:43.400Z,16.74
2018-10-03T14:07:11.848Z,16.91
2018-10-03T14:09:40.272Z,16.59
2018-10-03T14:12:08.660Z,16.30
2018-10-03T14:14:37.078Z,15.51
2018-10-03T14:17:05.489Z,15.88
2018-10-03T14:19:33.828Z,15.02
2018-10-03T14:22:03.340Z,15.52
2018-10-03T14:24:31.863Z,16.08
2018-10-03T14:27:00.249Z,15.36
2018-10-03T14:29:28.684Z,15.25
2018-10-03T14:31:57.099Z,16.55
2018-10-03T14:34:25.567Z,16.05
2018-10-03T14:36:53.971Z,15.23
2018-10-03T14:39:22.497Z,15.60
2018-10-03T14:41:54.905Z,14.84
2018-10-03T14:44:23.346Z,15.75
2018-10-03T14:46:51.772Z,15.88
2018-10-03T14:49:20.237Z,16.44
2018-10-03T14:51:49.792Z,16.82
2018-10-03T14:54:18.248Z,16.36
2018-10-03T14:56:48.735Z,16.52
2018-10-03T14:59:18.042Z,16.14
2018-10-03T15:01:46.841Z,16.95
2018-10-03T15:04:16.316Z,16.99
2018-10-03T15:06:44.872Z,16.41
2018-10-03T15:09:19.875Z,15.93
2018-10-03T15:11:48.208Z,16.88
2018-10-03T15:14:16.595Z,15.32
2018-10-03T15:16:45.043Z,15.75
2018-10-03T15:19:13.463Z,15.71
2018-10-03T15:21:41.768Z,16.39
2018-10-03T15:24:10.285Z,16.64
2018-10-03T15:26:38.803Z,16.33
2018-10-03T15:29:07.296Z,15.38
2018-10-03T15:31:36.862Z,16.25
2018-10-03T15:34:05.502Z,16.22
2018-10-03T15:36:34.149Z,16.12
2018-10-03T15:39:02.621Z,16.20
2018-10-03T15:41:31.176Z,15.95
2018-10-03T15:43:59.628Z,15.63
2018-10-03T15:46:28.136Z,16.07
2018-10-03T15:48:56.599Z,15.75
2018-10-03T15:51:25.256Z,16.09
2018-10-03T15:53:53.758Z,15.82
2018-10-03T15:56:22.362Z,15.57
2018-10-03T15:58:50.948Z,16.00
2018-10-03T16:01:20.385Z,16.04
2018-10-03T16:03:48.864Z,15.45
2018-10-03T16:06:17.412Z,15.67
2018-10-03T16:08:45.819Z,15.53
2018-10-03T16:11:14.260Z,15.37
2018-10-03T16:13:42.655Z,15.78
2018-10-03T16:16:11.220Z,15.45
2018-10-03T16:18:39.784Z,15.89
2018-10-03T16:21:08.420Z,15.55
2018-10-03T16:23:36.923Z,15.66
2018-10-03T16:26:05.493Z,15.77
2018-10-03T16:28:34.092Z,15.64
2018-10-03T16:31:02.656Z,14.89
2018-10-03T16:33:31.296Z,14.67
2018-10-03T16:35:59.925Z,15.19
2018-10-03T16:38:28.684Z,14.78
2018-10-03T16:40:57.208Z,14.58
2018-10-03T16:43:25.799Z,14.92
2018-10-03T16:45:54.472Z,14.94
2018-10-03T16:48:23.000Z,15.01
2018-10-03T16:50:51.484Z,14.91
2018-10-03T16:53:19.926Z,15.11
2018-10-03T16:55:48.394Z,14.83
2018-10-03T16:58:17.041Z,14.97
2018-10-03T17:00:45.529Z,14.55
2018-10-03T17:03:14.090Z,14.67
2018-10-03T17:05:42.638Z,14.70
2018-10-03T17:08:11.118Z,14.20
2018-10-03T17:10:39.593Z,14.33
2018-10-03T17:13:08.388Z,14.66
2018-10-03T17:15:36.892Z,14.42
2018-10-03T17:18:05.540Z,13.65
2018-10-03T17:20:34.081Z,14.38
2018-10-03T17:23:03.150Z,14.46
2018-10-03T17:25:31.916Z,14.49
2018-10-03T17:28:00.317Z,14.49
2018-10-03T17:30:28.783Z,14.34
2018-10-03T17:32:57.329Z,14.44
2018-10-03T17:35:25.861Z,14.45
2018-10-03T17:37:54.374Z,13.99
2018-10-03T17:40:22.861Z,14.27
2018-10-03T17:42:51.319Z,13.94
2018-10-03T17:45:19.923Z,13.75
2018-10-03T17:50:19.904Z,14.24
2018-10-03T17:52:48.456Z,14.10
2018-10-03T17:55:17.007Z,14.21
2018-10-03T17:57:45.464Z,14.03
2018-10-03T18:00:14.048Z,14.02
2018-10-03T18:02:42.464Z,13.97
2018-10-03T18:05:10.953Z,14.22
2018-10-03T18:07:39.484Z,14.31
2018-10-03T18:10:07.969Z,14.07
2018-10-03T18:12:36.524Z,14.16
2018-10-03T18:15:05.245Z,14.17
2018-10-03T18:17:33.822Z,13.90
2018-10-03T18:20:02.368Z,13.99
2018-10-03T18:22:30.864Z,13.93
2018-10-03T18:24:59.361Z,13.78
2018-10-03T18:27:27.784Z,13.70
2018-10-03T18:29:57.310Z,13.75
2018-10-03T18:32:26.636Z,13.71
2018-10-03T18:34:55.963Z,14.04
2018-10-03T18:37:25.482Z,13.86
2018-10-03T18:39:54.835Z,14.08
2018-10-03T18:42:24.068Z,14.17
2018-10-03T18:44:53.267Z,13.83
2018-10-03T18:47:22.121Z,13.94
2018-10-03T18:49:52.074Z,13.68
2018-10-03T18:52:21.507Z,13.15
2018-10-03T18:54:51.072Z,13.38
2018-10-03T18:57:20.769Z,13.49
2018-10-03T18:59:51.443Z,13.15
2018-10-03T19:02:21.515Z,13.47
2018-10-03T19:04:52.537Z,13.48
2018-10-03T19:07:21.985Z,13.61
2018-10-03T19:09:53.372Z,13.62
2018-10-03T19:12:24.572Z,13.92
2018-10-03T19:14:54.983Z,13.71
2018-10-03T19:17:23.447Z,13.79
2018-10-03T19:19:51.964Z,13.73
2018-10-03T19:22:20.449Z,13.70
2018-10-03T19:24:48.977Z,13.36
2018-10-03T19:27:17.442Z,13.83
2018-10-03T19:29:45.893Z,13.60
2018-10-03T19:32:14.338Z,13.95
2018-10-03T19:34:42.840Z,13.56
2018-10-03T19:37:11.296Z,13.74
2018-10-03T19:39:39.756Z,13.26
2018-10-03T19:42:08.245Z,13.45
2018-10-03T19:44:37.358Z,13.53
2018-10-03T19:47:06.390Z,13.36
2018-10-03T19:49:35.297Z,13.59
2018-10-03T19:52:04.586Z,13.67
2018-10-03T19:54:33.795Z,13.68
2018-10-03T19:57:02.847Z,13.56
2018-10-03T19:59:31.998Z,12.88
2018-10-03T20:02:01.029Z,13.35
2018-10-03T20:04:30.337Z,13.56
2018-10-03T20:06:59.808Z,13.35
2018-10-03T20:09:28.965Z,13.48
2018-10-03T20:11:58.298Z,12.78
2018-10-03T20:14:28.078Z,13.06
2018-10-03T20:16:57.461Z,13.27
2018-10-03T20:19:26.676Z,13.16
2018-10-03T20:21:55.542Z,13.37
2018-10-03T20:24:25.725Z,13.44
2018-10-03T20:26:54.818Z,13.49
2018-10-03T20:29:24.248Z,13.60
2018-10-03T20:31:53.498Z,13.64
2018-10-03T20:34:22.681Z,13.50
2018-10-03T20:36:51.369Z,13.34
2018-10-03T20:39:19.880Z,13.17
2018-10-03T20:41:48.600Z,13.25
2018-10-03T20:44:17.145Z,13.26
2018-10-03T20:46:45.648Z,13.34
2018-10-03T20:49:14.248Z,13.47
2018-10-03T20:51:42.777Z,13.42
2018-10-03T20:54:11.306Z,13.36
2018-10-03T20:56:39.745Z,13.30
2018-10-03T20:59:08.208Z,13.47
2018-10-03T21:01:36.812Z,13.41
2018-10-03T21:04:05.291Z,13.31
2018-10-03T21:06:34.026Z,13.18
2018-10-03T21:09:02.742Z,12.98
2018-10-03T21:11:31.717Z,13.14
2018-10-03T21:14:00.190Z,13.09
2018-10-03T21:16:28.736Z,12.72
2018-10-03T21:18:57.269Z,12.89
2018-10-03T21:21:25.775Z,12.65
2018-10-03T21:23:54.304Z,12.66
2018-10-03T21:26:22.844Z,12.89
2018-10-03T21:28:51.401Z,12.88
2018-10-03T21:31:19.857Z,13.28
2018-10-03T21:33:48.448Z,13.25
2018-10-03T21:36:16.934Z,13.37
2018-10-03T21:38:45.416Z,13.29
2018-10-03T21:41:13.896Z,13.38
2018-10-03T21:43:42.464Z,13.70
2018-10-03T21:46:10.895Z,13.16
2018-10-03T21:48:42.214Z,13.26
2018-10-03T21:51:10.720Z,13.05
2018-10-03T21:53:40.525Z,12.94
2018-10-03T21:56:08.904Z,13.15
2018-10-03T21:58:37.564Z,13.31
2018-10-03T22:01:06.029Z,13.28
2018-10-03T22:03:34.453Z,13.32
2018-10-03T22:06:02.904Z,12.97
2018-10-03T22:08:31.385Z,13.34
2018-10-03T22:10:59.836Z,13.46
2018-10-03T22:13:28.245Z,12.89
2018-10-03T22:15:56.686Z,12.94
2018-10-03T22:18:25.160Z,13.43
2018-10-03T22:20:53.620Z,13.18
2018-10-03T22:23:22.152Z,12.76
2018-10-03T22:25:50.626Z,13.45
2018-10-03T22:28:19.056Z,13.46
2018-10-03T22:30:47.506Z,13.32
2018-10-03T22:33:15.912Z,13.00
2018-10-03T22:35:44.367Z,13.06
2018-10-03T22:38:12.805Z,13.38
2018-10-03T22:40:41.230Z,12.75
2018-10-03T22:43:09.708Z,13.14
2018-10-03T22:45:38.156Z,12.74
2018-10-03T22:48:06.668Z,12.37
2018-10-03T22:50:35.160Z,12.80
2018-10-03T22:53:03.656Z,12.91
2018-10-03T22:55:32.178Z,13.01
2018-10-03T22:58:00.603Z,13.12
2018-10-03T23:00:29.266Z,13.31
2018-10-03T23:02:57.781Z,13.14
2018-10-03T23:05:26.246Z,13.10
2018-10-03T23:07:54.665Z,12.67
2018-10-03T23:10:23.164Z,13.09
2018-10-03T23:12:51.616Z,12.85
2018-10-03T23:15:19.996Z,12.98
2018-10-03T23:17:48.469Z,13.07
2018-10-03T23:20:17.016Z,12.92
2018-10-03T23:22:45.497Z,12.88
2018-10-03T23:25:14.073Z,12.82
2018-10-03T23:27:42.533Z,12.94
2018-10-03T23:30:10.980Z,12.50
2018-10-03T23:32:39.420Z,12.63
2018-10-03T23:35:07.922Z,12.70
2018-10-03T23:37:36.424Z,12.89
2018-10-03T23:40:05.043Z,12.86
2018-10-03T23:42:33.586Z,12.42
2018-10-03T23:45:02.018Z,12.75
2018-10-03T23:47:30.464Z,12.71
2018-10-03T23:49:59.088Z,12.78
2018-10-03T23:52:27.562Z,12.77
2018-10-03T23:54:55.992Z,12.56
2018-10-03T23:57:24.546Z,12.46
2018-10-03T23:59:53.153Z,12.42
